RYR016 LIEE-LIRP
Flight info
| Callsign | RYR016 |
|---|---|
| Flight time | 0h 55m |
| Altitude | 34000 |
| Route | KOVAS DCT DEXUL DCT LABOM DCT IBROS DCT NEMIT Q125 ELB |
| Aircraft | B738/M-SDE2E3FGHIRWXY/LB1 |
Departure
| Time | 2026-04-26 16:58 |
|---|---|
| Airport | Cagliari Elmas Airport (LIEE) |
Arrival
| Time | 2026-04-26 17:54 |
|---|---|
| Airport | Pisa International Airport (LIRP) |
| Time | Latitude | Longitude | Altitude | Speed | Heading |
|---|---|---|---|---|---|
| 2026-04-26 16:45 | 39.25313 | 9.05808 | 15 ft | 0 kts | 112° |
| 2026-04-26 16:46 | 39.25313 | 9.05807 | 15 ft | 0 kts | 112° |
| 2026-04-26 16:51 | 39.25316 | 9.05799 | 14 ft | 1 kts | 112° |
| 2026-04-26 16:51 | 39.25319 | 9.05790 | 14 ft | 1 kts | 122° |
| 2026-04-26 16:51 | 39.25324 | 9.05782 | 14 ft | 1 kts | 160° |
| 2026-04-26 16:51 | 39.25331 | 9.05780 | 14 ft | 1 kts | 197° |
| 2026-04-26 16:52 | 39.25338 | 9.05784 | 14 ft | 1 kts | 234° |
| 2026-04-26 16:52 | 39.25339 | 9.05786 | 14 ft | 0 kts | 240° |
| 2026-04-26 16:53 | 39.25331 | 9.05764 | 15 ft | 7 kts | 251° |
| 2026-04-26 16:54 | 39.25344 | 9.05679 | 14 ft | 13 kts | 287° |
| 2026-04-26 16:54 | 39.25383 | 9.05554 | 15 ft | 17 kts | 285° |
| 2026-04-26 16:54 | 39.25419 | 9.05410 | 14 ft | 17 kts | 298° |
| 2026-04-26 16:54 | 39.25496 | 9.05304 | 15 ft | 16 kts | 319° |
| 2026-04-26 16:55 | 39.25576 | 9.05207 | 14 ft | 16 kts | 317° |
| 2026-04-26 16:55 | 39.25658 | 9.05106 | 14 ft | 16 kts | 316° |
| 2026-04-26 16:55 | 39.25740 | 9.05008 | 14 ft | 16 kts | 317° |
| 2026-04-26 16:55 | 39.25821 | 9.04915 | 14 ft | 16 kts | 319° |
| 2026-04-26 16:56 | 39.26015 | 9.04692 | 14 ft | 21 kts | 318° |
| 2026-04-26 16:56 | 39.26114 | 9.04558 | 14 ft | 13 kts | 295° |
| 2026-04-26 16:56 | 39.26123 | 9.04524 | 14 ft | 3 kts | 281° |
| 2026-04-26 16:57 | 39.26125 | 9.04466 | 14 ft | 9 kts | 268° |
| 2026-04-26 16:57 | 39.26096 | 9.04395 | 14 ft | 9 kts | 213° |
| 2026-04-26 16:57 | 39.26039 | 9.04398 | 15 ft | 1 kts | 139° |
| 2026-04-26 16:58 | 39.26037 | 9.04400 | 15 ft | 3 kts | 139° |
| 2026-04-26 16:58 | 39.25922 | 9.04533 | 13 ft | 65 kts | 138° |
| 2026-04-26 16:58 | 39.24141 | 9.06558 | 858 ft | 187 kts | 140° |
| 2026-04-26 16:59 | 39.23101 | 9.07733 | 1712 ft | 210 kts | 139° |
| 2026-04-26 16:59 | 39.20764 | 9.10440 | 2724 ft | 249 kts | 136° |
| 2026-04-26 17:00 | 39.17678 | 9.12334 | 4350 ft | 261 kts | 188° |
| 2026-04-26 17:00 | 39.14836 | 9.09593 | 6152 ft | 264 kts | 230° |
| 2026-04-26 17:00 | 39.13908 | 9.07562 | 6950 ft | 267 kts | 257° |
| 2026-04-26 17:01 | 39.13940 | 9.05188 | 7758 ft | 269 kts | 285° |
| 2026-04-26 17:01 | 39.14773 | 9.03032 | 8571 ft | 272 kts | 308° |
| 2026-04-26 17:01 | 39.16131 | 9.01309 | 9364 ft | 277 kts | 318° |
| 2026-04-26 17:01 | 39.17599 | 8.99660 | 10064 ft | 285 kts | 317° |
| 2026-04-26 17:02 | 39.19107 | 8.97957 | 10740 ft | 290 kts | 317° |
| 2026-04-26 17:02 | 39.20626 | 8.96217 | 11503 ft | 293 kts | 317° |
| 2026-04-26 17:02 | 39.22155 | 8.94460 | 12290 ft | 296 kts | 320° |
| 2026-04-26 17:02 | 39.23964 | 8.93185 | 13037 ft | 304 kts | 343° |
| 2026-04-26 17:03 | 39.26130 | 8.92780 | 13273 ft | 327 kts | 355° |
| 2026-04-26 17:03 | 39.28475 | 8.92637 | 13613 ft | 345 kts | 357° |
| 2026-04-26 17:03 | 39.30869 | 8.92521 | 14270 ft | 351 kts | 357° |
| 2026-04-26 17:03 | 39.33320 | 8.92387 | 15005 ft | 354 kts | 357° |
| 2026-04-26 17:04 | 39.35786 | 8.92228 | 15812 ft | 356 kts | 357° |
| 2026-04-26 17:04 | 39.38277 | 8.92052 | 16514 ft | 362 kts | 357° |
| 2026-04-26 17:04 | 39.40812 | 8.91868 | 17182 ft | 367 kts | 357° |
| 2026-04-26 17:04 | 39.43357 | 8.92126 | 17919 ft | 369 kts | 17° |
| 2026-04-26 17:05 | 39.45720 | 8.93431 | 18632 ft | 372 kts | 28° |
| 2026-04-26 17:05 | 39.48001 | 8.95058 | 19217 ft | 377 kts | 30° |
| 2026-04-26 17:05 | 39.50281 | 8.96749 | 19895 ft | 378 kts | 30° |
| 2026-04-26 17:05 | 39.52576 | 8.98446 | 20511 ft | 382 kts | 30° |
| 2026-04-26 17:06 | 39.54901 | 9.00142 | 21159 ft | 385 kts | 30° |
| 2026-04-26 17:06 | 39.57251 | 9.01837 | 21761 ft | 388 kts | 29° |
| 2026-04-26 17:06 | 39.59628 | 9.03540 | 22348 ft | 392 kts | 29° |
| 2026-04-26 17:06 | 39.62023 | 9.05253 | 22961 ft | 395 kts | 29° |
| 2026-04-26 17:07 | 39.64447 | 9.06962 | 23551 ft | 398 kts | 26° |
| 2026-04-26 17:07 | 39.67070 | 9.08160 | 24048 ft | 402 kts | 15° |
| 2026-04-26 17:07 | 39.69797 | 9.09013 | 24568 ft | 404 kts | 13° |
| 2026-04-26 17:07 | 39.72534 | 9.09834 | 25143 ft | 404 kts | 13° |
| 2026-04-26 17:08 | 39.75278 | 9.10683 | 25651 ft | 406 kts | 13° |
| 2026-04-26 17:08 | 39.78016 | 9.11565 | 26272 ft | 404 kts | 14° |
| 2026-04-26 17:08 | 39.80730 | 9.12465 | 26953 ft | 401 kts | 14° |
| 2026-04-26 17:08 | 39.83440 | 9.13372 | 27442 ft | 404 kts | 13° |
| 2026-04-26 17:09 | 39.86150 | 9.14302 | 28060 ft | 402 kts | 16° |
| 2026-04-26 17:09 | 39.87901 | 9.15058 | 28519 ft | 400 kts | 19° |
| 2026-04-26 17:09 | 39.91387 | 9.16776 | 29232 ft | 401 kts | 20° |
| 2026-04-26 17:09 | 39.93979 | 9.18111 | 29813 ft | 400 kts | 20° |
| 2026-04-26 17:10 | 39.96567 | 9.19444 | 30360 ft | 399 kts | 20° |
| 2026-04-26 17:10 | 39.99151 | 9.20764 | 30825 ft | 399 kts | 20° |
| 2026-04-26 17:10 | 40.01745 | 9.22078 | 31121 ft | 402 kts | 20° |
| 2026-04-26 17:10 | 40.04387 | 9.23406 | 31130 ft | 411 kts | 20° |
| 2026-04-26 17:11 | 40.09843 | 9.26137 | 31150 ft | 429 kts | 19° |
| 2026-04-26 17:11 | 40.15519 | 9.28980 | 31151 ft | 445 kts | 20° |
| 2026-04-26 17:12 | 40.21351 | 9.31907 | 31162 ft | 459 kts | 20° |
| 2026-04-26 17:12 | 40.24354 | 9.33417 | 31270 ft | 465 kts | 20° |
| 2026-04-26 17:13 | 40.30412 | 9.36468 | 31886 ft | 466 kts | 20° |
| 2026-04-26 17:13 | 40.33432 | 9.37992 | 32289 ft | 464 kts | 20° |
| 2026-04-26 17:13 | 40.39450 | 9.41020 | 32977 ft | 463 kts | 19° |
| 2026-04-26 17:14 | 40.42488 | 9.42437 | 33310 ft | 463 kts | 17° |
| 2026-04-26 17:14 | 40.48588 | 9.45115 | 34017 ft | 462 kts | 17° |
| 2026-04-26 17:14 | 40.51639 | 9.46444 | 34134 ft | 464 kts | 17° |
| 2026-04-26 17:15 | 40.60801 | 9.50499 | 34137 ft | 457 kts | 19° |
| 2026-04-26 17:16 | 40.66805 | 9.53195 | 34140 ft | 455 kts | 19° |
| 2026-04-26 17:16 | 40.72795 | 9.55892 | 34141 ft | 455 kts | 19° |
| 2026-04-26 17:17 | 40.78776 | 9.58590 | 34131 ft | 455 kts | 19° |
| 2026-04-26 17:17 | 40.84764 | 9.61296 | 34132 ft | 455 kts | 19° |
| 2026-04-26 17:18 | 40.90719 | 9.63991 | 34128 ft | 456 kts | 19° |
| 2026-04-26 17:18 | 40.96720 | 9.66713 | 34134 ft | 456 kts | 19° |
| 2026-04-26 17:19 | 41.05745 | 9.70815 | 34139 ft | 458 kts | 19° |
| 2026-04-26 17:19 | 41.11775 | 9.73563 | 34143 ft | 459 kts | 19° |
| 2026-04-26 17:20 | 41.15814 | 9.75406 | 34142 ft | 459 kts | 19° |
| 2026-04-26 17:20 | 41.23839 | 9.79076 | 34145 ft | 458 kts | 19° |
| 2026-04-26 17:21 | 41.29869 | 9.81840 | 34147 ft | 458 kts | 19° |
| 2026-04-26 17:21 | 41.35894 | 9.84607 | 34140 ft | 458 kts | 20° |
| 2026-04-26 17:22 | 41.41916 | 9.87378 | 34149 ft | 458 kts | 19° |
| 2026-04-26 17:22 | 41.47945 | 9.90158 | 34147 ft | 458 kts | 19° |
| 2026-04-26 17:23 | 41.53974 | 9.92930 | 34145 ft | 458 kts | 18° |
| 2026-04-26 17:23 | 41.60088 | 9.95358 | 34144 ft | 458 kts | 16° |
| 2026-04-26 17:24 | 41.66231 | 9.97642 | 34145 ft | 458 kts | 15° |
| 2026-04-26 17:24 | 41.72364 | 9.99961 | 34147 ft | 458 kts | 16° |
| 2026-04-26 17:25 | 41.78491 | 10.02323 | 34149 ft | 458 kts | 16° |
| 2026-04-26 17:25 | 41.84608 | 10.04699 | 34143 ft | 458 kts | 16° |
| 2026-04-26 17:26 | 41.90824 | 10.06541 | 33782 ft | 462 kts | 9° |
| 2026-04-26 17:26 | 41.93980 | 10.07175 | 33267 ft | 450 kts | 8° |
| 2026-04-26 17:26 | 41.97031 | 10.07745 | 32767 ft | 436 kts | 8° |
| 2026-04-26 17:27 | 41.99991 | 10.08302 | 32343 ft | 423 kts | 8° |
| 2026-04-26 17:27 | 42.02885 | 10.08865 | 31903 ft | 418 kts | 8° |
| 2026-04-26 17:27 | 42.05713 | 10.09434 | 31480 ft | 415 kts | 8° |
| 2026-04-26 17:27 | 42.08589 | 10.10026 | 31047 ft | 412 kts | 9° |
| 2026-04-26 17:28 | 42.11372 | 10.10609 | 30625 ft | 409 kts | 9° |
| 2026-04-26 17:28 | 42.14175 | 10.11200 | 30200 ft | 406 kts | 9° |
| 2026-04-26 17:28 | 42.16962 | 10.11791 | 29708 ft | 404 kts | 9° |
| 2026-04-26 17:28 | 42.19725 | 10.12378 | 29257 ft | 400 kts | 9° |
| 2026-04-26 17:29 | 42.22463 | 10.12960 | 28811 ft | 397 kts | 9° |
| 2026-04-26 17:29 | 42.23382 | 10.13155 | 28660 ft | 396 kts | 9° |
| 2026-04-26 17:29 | 42.27867 | 10.14109 | 27940 ft | 390 kts | 9° |
| 2026-04-26 17:29 | 42.30541 | 10.14678 | 27506 ft | 387 kts | 8° |
| 2026-04-26 17:30 | 42.33193 | 10.15243 | 27078 ft | 385 kts | 8° |
| 2026-04-26 17:30 | 42.35829 | 10.15805 | 26658 ft | 382 kts | 8° |
| 2026-04-26 17:30 | 42.38452 | 10.16365 | 26239 ft | 380 kts | 8° |
| 2026-04-26 17:30 | 42.41058 | 10.16921 | 25828 ft | 378 kts | 8° |
| 2026-04-26 17:31 | 42.43651 | 10.17475 | 25413 ft | 377 kts | 8° |
| 2026-04-26 17:31 | 42.46236 | 10.18028 | 25000 ft | 375 kts | 8° |
| 2026-04-26 17:31 | 42.48810 | 10.18579 | 24588 ft | 374 kts | 8° |
| 2026-04-26 17:31 | 42.51379 | 10.19129 | 24157 ft | 374 kts | 8° |
| 2026-04-26 17:32 | 42.53942 | 10.19678 | 23739 ft | 373 kts | 8° |
| 2026-04-26 17:32 | 42.56504 | 10.20228 | 23264 ft | 372 kts | 8° |
| 2026-04-26 17:32 | 42.59063 | 10.20778 | 22825 ft | 371 kts | 8° |
| 2026-04-26 17:32 | 42.61646 | 10.21365 | 22580 ft | 386 kts | 9° |
| 2026-04-26 17:33 | 42.64338 | 10.22081 | 22314 ft | 399 kts | 11° |
| 2026-04-26 17:33 | 42.67062 | 10.22856 | 21891 ft | 400 kts | 11° |
| 2026-04-26 17:33 | 42.69773 | 10.23642 | 21437 ft | 396 kts | 11° |
| 2026-04-26 17:34 | 42.75100 | 10.25178 | 20564 ft | 388 kts | 11° |
| 2026-04-26 17:34 | 42.77734 | 10.25928 | 20142 ft | 385 kts | 10° |
| 2026-04-26 17:34 | 42.80314 | 10.26658 | 19722 ft | 382 kts | 10° |
| 2026-04-26 17:34 | 42.82911 | 10.27390 | 19296 ft | 380 kts | 10° |
| 2026-04-26 17:35 | 42.85498 | 10.28119 | 18869 ft | 379 kts | 10° |
| 2026-04-26 17:35 | 42.88071 | 10.28844 | 18449 ft | 377 kts | 10° |
| 2026-04-26 17:35 | 42.90632 | 10.29565 | 17974 ft | 375 kts | 11° |
| 2026-04-26 17:35 | 42.93183 | 10.30284 | 17520 ft | 373 kts | 11° |
| 2026-04-26 17:36 | 42.95717 | 10.30999 | 17091 ft | 371 kts | 11° |
| 2026-04-26 17:36 | 42.98245 | 10.31634 | 16689 ft | 367 kts | 8° |
| 2026-04-26 17:36 | 43.00755 | 10.32171 | 16250 ft | 363 kts | 9° |
| 2026-04-26 17:36 | 43.03200 | 10.33000 | 15768 ft | 361 kts | 16° |
| 2026-04-26 17:37 | 43.05591 | 10.34026 | 15313 ft | 359 kts | 17° |
| 2026-04-26 17:37 | 43.07160 | 10.34720 | 15010 ft | 357 kts | 17° |
| 2026-04-26 17:37 | 43.09518 | 10.35767 | 14561 ft | 356 kts | 18° |
| 2026-04-26 17:38 | 43.14201 | 10.37835 | 13636 ft | 352 kts | 18° |
| 2026-04-26 17:38 | 43.16524 | 10.38848 | 13135 ft | 350 kts | 18° |
| 2026-04-26 17:38 | 43.18842 | 10.39836 | 12647 ft | 348 kts | 18° |
| 2026-04-26 17:38 | 43.21152 | 10.40817 | 12165 ft | 347 kts | 18° |
| 2026-04-26 17:39 | 43.23453 | 10.41793 | 11691 ft | 345 kts | 17° |
| 2026-04-26 17:39 | 43.25743 | 10.42766 | 11221 ft | 344 kts | 17° |
| 2026-04-26 17:39 | 43.28024 | 10.43740 | 10763 ft | 342 kts | 17° |
| 2026-04-26 17:39 | 43.30293 | 10.44712 | 10306 ft | 341 kts | 17° |
| 2026-04-26 17:40 | 43.32538 | 10.45677 | 9832 ft | 334 kts | 17° |
| 2026-04-26 17:40 | 43.33989 | 10.46304 | 9498 ft | 327 kts | 18° |
| 2026-04-26 17:40 | 43.36765 | 10.47777 | 8950 ft | 311 kts | 23° |
| 2026-04-26 17:40 | 43.38725 | 10.48915 | 8582 ft | 301 kts | 22° |
| 2026-04-26 17:41 | 43.40638 | 10.49970 | 8227 ft | 292 kts | 22° |
| 2026-04-26 17:41 | 43.42498 | 10.50985 | 7879 ft | 284 kts | 21° |
| 2026-04-26 17:41 | 43.44315 | 10.51972 | 7525 ft | 278 kts | 21° |
| 2026-04-26 17:41 | 43.46094 | 10.52937 | 7182 ft | 273 kts | 21° |
| 2026-04-26 17:42 | 43.47846 | 10.53887 | 6844 ft | 269 kts | 21° |
| 2026-04-26 17:42 | 43.49582 | 10.54829 | 6512 ft | 268 kts | 21° |
| 2026-04-26 17:42 | 43.51310 | 10.55768 | 6159 ft | 266 kts | 21° |
| 2026-04-26 17:42 | 43.53025 | 10.56707 | 6029 ft | 264 kts | 21° |
| 2026-04-26 17:43 | 43.54734 | 10.57647 | 6010 ft | 265 kts | 21° |
| 2026-04-26 17:43 | 43.56445 | 10.58591 | 6004 ft | 264 kts | 21° |
| 2026-04-26 17:43 | 43.58128 | 10.59522 | 5887 ft | 258 kts | 21° |
| 2026-04-26 17:43 | 43.59772 | 10.60436 | 5552 ft | 253 kts | 21° |
| 2026-04-26 17:44 | 43.61395 | 10.61351 | 5154 ft | 251 kts | 21° |
| 2026-04-26 17:44 | 43.63012 | 10.62275 | 5037 ft | 254 kts | 22° |
| 2026-04-26 17:44 | 43.64632 | 10.63211 | 5006 ft | 256 kts | 22° |
| 2026-04-26 17:44 | 43.66271 | 10.64162 | 4995 ft | 254 kts | 22° |
| 2026-04-26 17:45 | 43.67898 | 10.65102 | 4990 ft | 253 kts | 21° |
| 2026-04-26 17:45 | 43.69512 | 10.66038 | 4987 ft | 251 kts | 21° |
| 2026-04-26 17:45 | 43.71118 | 10.66972 | 4984 ft | 249 kts | 22° |
| 2026-04-26 17:45 | 43.72715 | 10.67897 | 4994 ft | 248 kts | 22° |
| 2026-04-26 17:46 | 43.74316 | 10.68817 | 4998 ft | 251 kts | 21° |
| 2026-04-26 17:46 | 43.75948 | 10.69752 | 5005 ft | 256 kts | 22° |
| 2026-04-26 17:46 | 43.77590 | 10.70691 | 4990 ft | 254 kts | 22° |
| 2026-04-26 17:46 | 43.79254 | 10.71240 | 4923 ft | 243 kts | 354° |
| 2026-04-26 17:47 | 43.80858 | 10.70525 | 4706 ft | 243 kts | 327° |
| 2026-04-26 17:47 | 43.81698 | 10.69502 | 4510 ft | 236 kts | 301° |
| 2026-04-26 17:47 | 43.82254 | 10.66744 | 4203 ft | 220 kts | 276° |
| 2026-04-26 17:47 | 43.82426 | 10.64700 | 3965 ft | 208 kts | 276° |
| 2026-04-26 17:48 | 43.82590 | 10.62761 | 3730 ft | 197 kts | 276° |
| 2026-04-26 17:48 | 43.82749 | 10.60931 | 3629 ft | 188 kts | 276° |
| 2026-04-26 17:48 | 43.82909 | 10.59119 | 3597 ft | 190 kts | 276° |
| 2026-04-26 17:48 | 43.83069 | 10.57310 | 3586 ft | 188 kts | 276° |
| 2026-04-26 17:49 | 43.83229 | 10.55525 | 3591 ft | 186 kts | 276° |
| 2026-04-26 17:49 | 43.83389 | 10.53739 | 3597 ft | 188 kts | 276° |
| 2026-04-26 17:49 | 43.83549 | 10.51939 | 3592 ft | 189 kts | 275° |
| 2026-04-26 17:49 | 43.83288 | 10.50250 | 3566 ft | 179 kts | 233° |
| 2026-04-26 17:50 | 43.82264 | 10.49341 | 3298 ft | 176 kts | 201° |
| 2026-04-26 17:50 | 43.81157 | 10.48771 | 3251 ft | 161 kts | 203° |
| 2026-04-26 17:50 | 43.80139 | 10.48239 | 3226 ft | 154 kts | 202° |
| 2026-04-26 17:50 | 43.79122 | 10.47705 | 3020 ft | 163 kts | 202° |
| 2026-04-26 17:51 | 43.78080 | 10.47195 | 2882 ft | 148 kts | 202° |
| 2026-04-26 17:51 | 43.77115 | 10.46724 | 2489 ft | 148 kts | 200° |
| 2026-04-26 17:51 | 43.76101 | 10.46303 | 1951 ft | 156 kts | 197° |
| 2026-04-26 17:51 | 43.75061 | 10.45882 | 1518 ft | 154 kts | 199° |
| 2026-04-26 17:52 | 43.74108 | 10.45358 | 1276 ft | 138 kts | 210° |
| 2026-04-26 17:52 | 43.73287 | 10.44694 | 986 ft | 137 kts | 216° |
| 2026-04-26 17:52 | 43.72555 | 10.43895 | 819 ft | 131 kts | 225° |
| 2026-04-26 17:52 | 43.71853 | 10.42997 | 631 ft | 144 kts | 221° |
| 2026-04-26 17:53 | 43.71044 | 10.42149 | 468 ft | 147 kts | 218° |
| 2026-04-26 17:53 | 43.70214 | 10.41328 | 255 ft | 144 kts | 220° |
| 2026-04-26 17:53 | 43.69415 | 10.40502 | 47 ft | 143 kts | 220° |
| 2026-04-26 17:54 | 43.68078 | 10.39119 | 11 ft | 81 kts | 218° |
| 2026-04-26 17:54 | 43.67775 | 10.38801 | 14 ft | 48 kts | 216° |
| 2026-04-26 17:54 | 43.67553 | 10.38576 | 17 ft | 23 kts | 218° |
| 2026-04-26 17:54 | 43.67562 | 10.38455 | 13 ft | 14 kts | 313° |
| 2026-04-26 17:55 | 43.67626 | 10.38334 | 10 ft | 16 kts | 309° |
| 2026-04-26 17:55 | 43.67693 | 10.38215 | 11 ft | 15 kts | 307° |
| 2026-04-26 17:55 | 43.67774 | 10.38129 | 13 ft | 15 kts | 352° |
| 2026-04-26 17:55 | 43.67867 | 10.38174 | 11 ft | 14 kts | 31° |
| 2026-04-26 17:56 | 43.67947 | 10.38250 | 13 ft | 14 kts | 37° |
| 2026-04-26 17:56 | 43.68100 | 10.38409 | 12 ft | 16 kts | 36° |
| 2026-04-26 17:57 | 43.68309 | 10.38621 | 12 ft | 21 kts | 37° |
| 2026-04-26 17:57 | 43.68332 | 10.38774 | 12 ft | 19 kts | 121° |
| 2026-04-26 17:57 | 43.68268 | 10.38927 | 9 ft | 18 kts | 81° |
| 2026-04-26 17:57 | 43.68353 | 10.39060 | 12 ft | 21 kts | 35° |
| 2026-04-26 17:58 | 43.68817 | 10.39541 | 13 ft | 34 kts | 36° |
| 2026-04-26 17:59 | 43.69190 | 10.39903 | 16 ft | 30 kts | 19° |
| 2026-04-26 17:59 | 43.69376 | 10.39857 | 15 ft | 18 kts | 334° |
| 2026-04-26 17:59 | 43.69410 | 10.39717 | 16 ft | 18 kts | 231° |
| 2026-04-26 17:59 | 43.69399 | 10.39704 | 14 ft | 0 kts | 217° |